Louisville, KY (40223)

4:07 PM EST on December 18, 2014 (GMT -0500)
Owl Creek Country Club | Change Station
CLOSE
Current Station
Personal Weather Station
Location: Anchorage, KY
Elevation: 730 ft
Nearby Weather Stations

Elev 730 ft 38.28 °N, 85.53 °W | Updated 7 minutes ago

Overcast
Overcast
32.0 °F
Feels Like 32 °F
N
1.0
Wind Variable Wind from East
Gusts 3.0 mph

Today
High -- | Low -- °F
--% Chance of Precip.
Yesterday
High -- | Low -- °F
Precip. -- in
7:53 AM 5:23 PM
Waning Crescent, 12% visible
Pressure 30.25 in
Visibility 9.0 miles
Clouds Overcast 6000 ft
Windchill 32 °F
Dew Point 26 °F
Humidity 78%
Rainfall 0.00 in
Snow Depth Not available.
UV 0 out of 12
Pollen .10 out of 12
Air Quality Not available.
Flu Activity Not available.
METAR KLOU 182053Z 36003KT 9SM OVC060 01/M05 A3023 RMK AO2 SLP243 T00061050 56009

More Conditions Fewer Conditions

Pressure 30.25 in
Visibility 9.0 miles
Clouds Overcast 6000 ft
Windchill 32 °F
Dew Point 26 °F
Humidity 78%
Rainfall 0.00 in
Snow Depth Not available.
UV 0 out of 12
Pollen .10 out of 12
Air Quality Not available.
Flu Activity Not available.
METAR KLOU 182053Z 36003KT 9SM OVC060 01/M05 A3023 RMK AO2 SLP243 T00061050 56009

More Conditions Fewer Conditions

10-Day Weather Forecast

Almanac

Astronomy

Dec. 18, 2014 Rise Set
Actual Time
Civil Twilight
Nautical Twilight
Astronomical Twilight
Moon
Length of Visible Light
Length of Day
Tomorrow will be .
, % of the Moon is Illuminated

Today's Extremes

State Highs State Lows

Community

WunderPhotos

Upload Photos

1,778,997 photos uploaded!

WunderBlogs® & News

Nearby

Air Quality

  Air Quality AQ Index Pollutant
Not available.

Snow Depth

Station Depth Elevation

Earthquake Activity

City Distance Mag. Time & Date
Minimum magnitude displayed is 2.5.

Coastal Water Temperatures

Place Temperature

Nearby Weather Stations